Tristen — WDJ8628 — position and weather

sailwx.info

Track history (hours):
 
Tides and Currents Weather Stations Pressure Air Temp Water Temp Dewpoint Dewpoint Depression Visibility Wind Speed Wind Dir Waves Ship Positions

Tristen

Owner: LA Carriers, LLC, Larose, LA. More information available from US FCC via Universal Licensing System and Coast Guard Vessel Documentation Center.

Last reported at 2018-Aug-14 07:05 UTC. Time now 2018-Aug-16 08:45 UTC.
Position N 30°23' W 086°57'.

; draft 2 m.

Type: Towing. MMSI: 368018310.

Date/timePositionNaut miles runAvg speedWind from/ knotsBaromVisibWave heightAir tempDewpointWater temp
2018-Aug-14 07:05N 30°23' W 086°57'0 6.2
2018-Aug-14 07:00N 30°23' W 086°56'3 6.1
2018-Aug-14 06:30N 30°24' W 086°53'3 6.1
2018-Aug-14 06:01N 30°24' W 086°50'3 6.2
2018-Aug-14 05:31N 30°24' W 086°46'3 5.9
2018-Aug-14 05:01N 30°24' W 086°43'11 5.8
2018-Aug-14 03:04N 30°26' W 086°29'0 6.1
2018-Aug-14 03:00N 30°26' W 086°29'3 5.9
2018-Aug-14 02:30N 30°26' W 086°26'3 5.9
2018-Aug-14 02:00N 30°26' W 086°22'3 5.8
2018-Aug-14 01:30N 30°26' W 086°19'  
Track history (hours):
 
Tides and Currents Weather Stations Pressure Air Temp Water Temp Dewpoint Dewpoint Depression Visibility Wind Speed Wind Dir Waves Ship Positions

Tristen

Owner: LA Carriers, LLC, Larose, LA. More information available from US FCC via Universal Licensing System and Coast Guard Vessel Documentation Center.

Last reported at 2018-Aug-14 07:05 UTC. Time now 2018-Aug-16 08:45 UTC.
Position N 30°23' W 086°57'.

; draft 2 m.

Type: Towing. MMSI: 368018310.

Date/timePositionNaut miles runAvg speedWind from/ knotsBaromVisibWave heightAir tempDewpointWater temp
2018-Aug-14 07:05N 30°23' W 086°57'0 6.2
2018-Aug-14 07:00N 30°23' W 086°56'3 6.1
2018-Aug-14 06:30N 30°24' W 086°53'3 6.1
2018-Aug-14 06:01N 30°24' W 086°50'3 6.2
2018-Aug-14 05:31N 30°24' W 086°46'3 5.9
2018-Aug-14 05:01N 30°24' W 086°43'11 5.8
2018-Aug-14 03:04N 30°26' W 086°29'0 6.1
2018-Aug-14 03:00N 30°26' W 086°29'3 5.9
2018-Aug-14 02:30N 30°26' W 086°26'3 5.9
2018-Aug-14 02:00N 30°26' W 086°22'3 5.8
2018-Aug-14 01:30N 30°26' W 086°19'  

Dump ship's entire track history